createdAt,value
2019-05-05T00:00:37.570Z,72.62
2019-05-05T00:03:18.744Z,73.03
2019-05-05T00:05:50.508Z,73.31
2019-05-05T00:08:21.245Z,73.56
2019-05-05T00:10:54.542Z,73.74
2019-05-05T00:13:27.812Z,73.64
2019-05-05T00:16:09.512Z,73.85
2019-05-05T00:18:40.346Z,74.17
2019-05-05T00:21:11.081Z,74.23
2019-05-05T00:23:41.814Z,74.29
2019-05-05T00:26:14.680Z,74.20
2019-05-05T00:28:45.040Z,74.25
2019-05-05T00:31:15.760Z,73.71
2019-05-05T00:33:46.633Z,74.12
2019-05-05T00:36:17.552Z,74.17
2019-05-05T00:38:47.971Z,74.34
2019-05-05T00:41:18.797Z,74.43
2019-05-05T00:43:49.643Z,74.26
2019-05-05T00:46:24.884Z,74.49
2019-05-05T00:48:55.598Z,74.65
2019-05-05T00:51:26.352Z,74.68
2019-05-05T00:53:57.097Z,74.54
2019-05-05T00:56:27.828Z,74.34
2019-05-05T00:59:00.197Z,74.59
2019-05-05T01:01:35.338Z,74.80
2019-05-05T01:04:06.658Z,74.66
2019-05-05T01:06:37.514Z,74.92
2019-05-05T01:09:09.988Z,75.06
2019-05-05T01:11:40.564Z,75.18
2019-05-05T01:14:11.367Z,75.38
2019-05-05T01:16:42.088Z,75.41
2019-05-05T01:19:14.977Z,75.31
2019-05-05T01:21:46.028Z,75.58
2019-05-05T01:24:16.746Z,75.93
2019-05-05T01:26:47.495Z,76.39
2019-05-05T01:29:18.224Z,76.76
2019-05-05T01:31:49.063Z,76.64
2019-05-05T01:34:30.444Z,77.29
2019-05-05T01:37:15.230Z,77.76
2019-05-05T01:39:50.342Z,77.83
2019-05-05T01:42:21.058Z,77.94
2019-05-05T01:44:51.423Z,77.92
2019-05-05T01:47:22.349Z,78.12
2019-05-05T01:49:54.477Z,78.12
2019-05-05T01:52:25.744Z,77.97
2019-05-05T01:54:56.481Z,77.87
2019-05-05T01:57:27.632Z,77.64
2019-05-05T01:59:58.811Z,77.63
2019-05-05T02:02:29.602Z,77.39
2019-05-05T02:05:00.427Z,77.09
2019-05-05T02:07:31.307Z,77.11
2019-05-05T02:10:02.150Z,76.98
2019-05-05T02:12:35.173Z,77.07
2019-05-05T02:15:07.338Z,77.42
2019-05-05T02:17:38.117Z,77.28
2019-05-05T02:20:09.149Z,77.28
2019-05-05T02:22:40.018Z,77.23
2019-05-05T02:25:10.817Z,77.13
2019-05-05T02:27:41.573Z,77.23
2019-05-05T02:30:21.528Z,77.11
2019-05-05T02:32:55.424Z,76.98
2019-05-05T02:35:26.368Z,76.91
2019-05-05T02:37:57.297Z,76.82
2019-05-05T02:40:28.609Z,76.94
2019-05-05T02:42:59.482Z,77.03
2019-05-05T02:45:39.154Z,76.97
2019-05-05T02:48:14.862Z,77.07
2019-05-05T02:51:01.669Z,77.15
2019-05-05T02:53:34.001Z,77.10
2019-05-05T02:56:06.973Z,77.01
2019-05-05T02:58:39.432Z,77.31
2019-05-05T03:01:13.986Z,77.31
2019-05-05T03:03:44.883Z,77.38
2019-05-05T03:06:15.727Z,77.73
2019-05-05T03:08:47.561Z,77.82
2019-05-05T03:11:18.771Z,77.98
2019-05-05T03:13:53.507Z,77.89
2019-05-05T03:16:27.461Z,78.21
2019-05-05T03:18:58.409Z,78.16
2019-05-05T03:21:29.546Z,78.20
2019-05-05T03:24:00.386Z,78.07
2019-05-05T03:26:31.476Z,78.27
2019-05-05T03:29:04.765Z,78.07
2019-05-05T03:31:35.571Z,78.21
2019-05-05T03:34:06.786Z,78.20
2019-05-05T03:36:37.830Z,78.37
2019-05-05T03:39:10.221Z,78.52
2019-05-05T03:41:59.583Z,78.08
2019-05-05T03:44:36.267Z,78.10
2019-05-05T03:47:07.653Z,78.24
2019-05-05T03:49:38.445Z,78.37
2019-05-05T03:52:09.690Z,78.51
2019-05-05T03:54:41.038Z,78.47
2019-05-05T03:57:14.114Z,78.79
2019-05-05T03:59:45.150Z,78.87
2019-05-05T04:02:34.118Z,78.74
2019-05-05T04:05:24.823Z,78.46
2019-05-05T04:07:55.878Z,78.75
2019-05-05T04:10:26.603Z,78.48
2019-05-05T04:12:57.741Z,78.58
2019-05-05T04:15:28.580Z,78.42
2019-05-05T04:18:04.057Z,78.15
2019-05-05T04:20:35.162Z,78.29
2019-05-05T04:23:06.023Z,78.32
2019-05-05T04:25:36.836Z,78.48
2019-05-05T04:28:07.571Z,78.28
2019-05-05T04:30:38.425Z,78.56
2019-05-05T04:33:09.366Z,78.54
2019-05-05T04:35:40.185Z,78.64
2019-05-05T04:38:11.039Z,78.47
2019-05-05T04:40:43.538Z,78.38
2019-05-05T04:43:14.527Z,78.09
2019-05-05T04:45:45.378Z,77.98
2019-05-05T04:48:17.751Z,77.88
2019-05-05T04:50:54.388Z,77.78
2019-05-05T04:53:27.103Z,77.53
2019-05-05T04:55:57.833Z,77.37
2019-05-05T04:58:28.671Z,76.73
2019-05-05T05:00:59.405Z,76.36
2019-05-05T05:03:34.773Z,75.68
2019-05-05T05:06:07.224Z,75.18
2019-05-05T05:08:37.955Z,74.52
2019-05-05T05:11:08.694Z,74.08
2019-05-05T05:13:39.430Z,73.76
2019-05-05T05:16:10.153Z,73.87
2019-05-05T05:18:40.538Z,73.85
2019-05-05T05:21:11.236Z,73.87
2019-05-05T05:23:41.638Z,73.58
2019-05-05T05:26:13.879Z,73.34
2019-05-05T05:28:44.995Z,72.89
2019-05-05T05:31:15.717Z,72.59
2019-05-05T05:33:46.548Z,71.97
2019-05-05T05:36:17.285Z,72.37
2019-05-05T05:38:49.428Z,72.04
2019-05-05T05:41:24.790Z,72.23
2019-05-05T05:44:03.555Z,71.89
2019-05-05T05:46:36.194Z,72.42
2019-05-05T05:49:08.575Z,71.41
2019-05-05T05:51:39.324Z,72.01
2019-05-05T05:54:10.209Z,71.71
2019-05-05T05:56:40.738Z,72.57
2019-05-05T05:59:11.497Z,72.57
2019-05-05T06:01:43.733Z,71.75
2019-05-05T06:04:14.842Z,72.15
2019-05-05T06:06:45.551Z,71.68
2019-05-05T06:09:16.396Z,71.36
2019-05-05T06:11:47.122Z,70.58
2019-05-05T06:14:17.948Z,70.81
2019-05-05T06:16:48.796Z,70.76
2019-05-05T06:19:19.328Z,70.32
2019-05-05T06:21:54.143Z,70.02
2019-05-05T06:24:24.928Z,69.89
2019-05-05T06:26:55.712Z,69.77
2019-05-05T06:29:26.288Z,70.43
2019-05-05T06:31:57.079Z,70.40
2019-05-05T06:34:27.930Z,70.17
2019-05-05T06:36:58.758Z,70.46
2019-05-05T06:39:29.140Z,70.51
2019-05-05T06:42:01.560Z,70.13
2019-05-05T06:44:39.376Z,70.32
2019-05-05T06:47:13.494Z,70.34
2019-05-05T06:49:44.612Z,70.57
2019-05-05T06:52:15.346Z,70.15
2019-05-05T06:54:46.177Z,69.96
2019-05-05T06:57:17.143Z,69.60
2019-05-05T06:59:47.633Z,69.06
2019-05-05T07:02:18.680Z,69.51
2019-05-05T07:04:50.793Z,69.31
2019-05-05T07:07:23.496Z,69.34
2019-05-05T07:09:54.372Z,69.22
2019-05-05T07:12:25.226Z,69.09
2019-05-05T07:14:56.530Z,69.36
2019-05-05T07:17:27.292Z,69.07
2019-05-05T07:19:58.130Z,68.86
2019-05-05T07:22:28.880Z,68.22
2019-05-05T07:24:59.595Z,68.20
2019-05-05T07:27:30.326Z,67.70
2019-05-05T07:30:01.172Z,66.98
2019-05-05T07:32:33.690Z,66.89
2019-05-05T07:35:09.300Z,66.82
2019-05-05T07:37:40.016Z,67.04
2019-05-05T07:40:10.990Z,66.48
2019-05-05T07:42:43.957Z,64.56
2019-05-05T07:45:22.190Z,64.55
2019-05-05T07:47:47.930Z,64.67
2019-05-05T07:50:28.648Z,65.02
2019-05-05T07:52:54.566Z,63.96
2019-05-05T07:55:25.516Z,64.54
2019-05-05T07:57:55.982Z,64.05
2019-05-05T08:00:27.028Z,63.03
2019-05-05T08:02:57.934Z,61.04
2019-05-05T08:05:28.680Z,58.59
2019-05-05T08:07:59.476Z,58.99
2019-05-05T08:10:34.364Z,56.99
2019-05-05T08:13:05.255Z,58.04
2019-05-05T08:15:36.719Z,56.52
2019-05-05T08:18:13.887Z,55.77
2019-05-05T08:20:46.379Z,55.61
2019-05-05T08:23:29.049Z,55.81
2019-05-05T08:25:54.065Z,55.13
2019-05-05T08:28:35.880Z,55.73
2019-05-05T08:31:08.263Z,54.80
2019-05-05T08:33:39.118Z,53.92
2019-05-05T08:36:09.990Z,52.55
2019-05-05T08:38:40.788Z,52.91
2019-05-05T08:41:13.739Z,53.77
2019-05-05T08:43:44.287Z,53.37
2019-05-05T08:46:15.121Z,52.64
2019-05-05T08:48:45.972Z,52.15
2019-05-05T08:51:16.526Z,52.19
2019-05-05T08:53:48.488Z,51.23
2019-05-05T08:56:19.657Z,50.62
2019-05-05T08:58:50.450Z,50.96
2019-05-05T09:01:21.079Z,50.81
2019-05-05T09:03:53.573Z,50.57
2019-05-05T09:06:24.486Z,50.48
2019-05-05T09:08:55.430Z,50.90
2019-05-05T09:11:26.308Z,50.50
2019-05-05T09:13:57.124Z,50.10
2019-05-05T09:16:28.045Z,50.59
2019-05-05T09:19:04.177Z,51.21
2019-05-05T09:21:34.918Z,51.16
2019-05-05T09:24:19.277Z,50.74
2019-05-05T09:26:51.643Z,51.79
2019-05-05T09:29:24.288Z,51.53
2019-05-05T09:31:55.230Z,50.49
2019-05-05T09:34:25.634Z,50.48
2019-05-05T09:36:56.443Z,47.51
2019-05-05T09:39:27.075Z,48.13
2019-05-05T09:41:57.888Z,49.36
2019-05-05T09:44:28.377Z,49.87
2019-05-05T09:46:59.175Z,49.05
2019-05-05T09:49:29.998Z,48.55
2019-05-05T09:52:00.846Z,48.29
2019-05-05T09:54:31.671Z,49.35
2019-05-05T09:57:04.526Z,48.88
2019-05-05T09:59:34.981Z,47.45
2019-05-05T10:02:05.816Z,46.28
2019-05-05T10:04:37.917Z,46.66
2019-05-05T10:07:09.045Z,45.98
2019-05-05T10:09:39.937Z,45.88
2019-05-05T10:12:10.855Z,49.73
2019-05-05T10:14:41.643Z,48.45
2019-05-05T10:17:14.105Z,41.48
2019-05-05T10:19:45.021Z,42.84
2019-05-05T10:22:15.791Z,41.86
2019-05-05T10:24:48.253Z,41.67
2019-05-05T10:27:19.001Z,41.75
2019-05-05T10:29:49.829Z,42.90
2019-05-05T10:32:20.683Z,43.15
2019-05-05T10:34:53.197Z,43.14
2019-05-05T10:37:23.985Z,43.23
2019-05-05T10:39:55.239Z,42.22
2019-05-05T10:42:27.595Z,42.56
2019-05-05T10:44:58.326Z,41.85
2019-05-05T10:47:29.171Z,42.50
2019-05-05T10:49:59.897Z,43.57
2019-05-05T10:52:30.623Z,44.25
2019-05-05T10:55:01.360Z,43.56
2019-05-05T10:57:34.042Z,43.55
2019-05-05T11:00:12.184Z,41.26
2019-05-05T11:02:39.393Z,42.53
2019-05-05T11:05:10.951Z,41.19
2019-05-05T11:07:42.713Z,41.50
2019-05-05T11:10:15.283Z,40.69
2019-05-05T11:12:48.591Z,41.33
2019-05-05T11:15:20.867Z,40.60
2019-05-05T11:17:51.723Z,40.67
2019-05-05T11:20:24.691Z,40.36
2019-05-05T11:22:54.735Z,40.46
2019-05-05T11:25:27.085Z,41.66
2019-05-05T11:27:58.929Z,41.91
2019-05-05T11:30:38.983Z,41.48
2019-05-05T11:33:23.816Z,41.50
2019-05-05T11:35:59.347Z,40.54
2019-05-05T11:38:29.785Z,40.99
2019-05-05T11:41:00.339Z,40.91
2019-05-05T11:43:30.779Z,42.06
2019-05-05T11:46:01.543Z,43.52
2019-05-05T11:48:34.362Z,43.94
2019-05-05T11:51:04.931Z,43.88
2019-05-05T11:53:35.761Z,44.02
2019-05-05T11:56:06.953Z,43.61
2019-05-05T11:58:37.680Z,42.88
2019-05-05T12:01:08.680Z,42.97
2019-05-05T12:03:39.432Z,42.20
2019-05-05T12:06:09.878Z,42.44
2019-05-05T12:08:43.588Z,42.70
2019-05-05T12:11:14.844Z,42.27
2019-05-05T12:13:45.356Z,41.55
2019-05-05T12:16:17.578Z,40.95
2019-05-05T12:18:48.422Z,40.67
2019-05-05T12:21:19.155Z,40.41
2019-05-05T12:23:50.043Z,39.80
2019-05-05T12:26:24.367Z,39.54
2019-05-05T12:28:59.461Z,37.99
2019-05-05T12:31:33.861Z,37.95
2019-05-05T12:34:05.845Z,37.63
2019-05-05T12:36:36.769Z,38.47
2019-05-05T12:39:09.566Z,37.54
2019-05-05T12:41:40.398Z,37.14
2019-05-05T12:44:14.290Z,37.75
2019-05-05T12:46:52.619Z,37.52
2019-05-05T12:49:25.345Z,38.30
2019-05-05T12:51:56.825Z,37.93
2019-05-05T12:54:28.526Z,37.48
2019-05-05T12:57:00.430Z,37.33
2019-05-05T12:59:31.253Z,37.50
2019-05-05T13:02:04.344Z,37.59
2019-05-05T13:04:35.267Z,38.73
2019-05-05T13:07:08.206Z,40.68
2019-05-05T13:09:41.018Z,39.56
2019-05-05T13:12:11.762Z,38.16
2019-05-05T13:14:43.858Z,38.39
2019-05-05T13:17:14.870Z,38.78
2019-05-05T13:19:53.117Z,38.44
2019-05-05T13:22:28.515Z,39.43
2019-05-05T13:25:19.026Z,40.38
2019-05-05T13:27:51.400Z,39.85
2019-05-05T13:30:23.615Z,39.19
2019-05-05T13:32:54.585Z,39.90
2019-05-05T13:35:25.375Z,39.85
2019-05-05T13:37:56.151Z,41.58
2019-05-05T13:40:26.894Z,41.90
2019-05-05T13:42:57.774Z,41.98
2019-05-05T13:45:30.126Z,42.90
2019-05-05T13:48:00.943Z,42.18
2019-05-05T13:50:35.067Z,42.07
2019-05-05T13:53:05.926Z,41.66
2019-05-05T13:55:36.756Z,42.01
2019-05-05T13:58:08.931Z,41.99
2019-05-05T14:00:39.934Z,41.26
2019-05-05T14:03:10.688Z,41.79
2019-05-05T14:05:41.102Z,41.52
2019-05-05T14:08:11.844Z,41.59
2019-05-05T14:10:42.673Z,41.94
2019-05-05T14:13:15.116Z,42.35
2019-05-05T14:15:45.585Z,41.83
2019-05-05T14:18:16.420Z,41.74
2019-05-05T14:20:47.286Z,41.53
2019-05-05T14:23:18.386Z,41.01
2019-05-05T14:25:49.142Z,41.07
2019-05-05T14:28:19.587Z,41.20
2019-05-05T14:30:54.038Z,41.25
2019-05-05T14:33:26.130Z,41.45
2019-05-05T14:35:58.522Z,41.46
2019-05-05T14:38:34.177Z,42.40
2019-05-05T14:41:04.750Z,42.34
2019-05-05T14:43:35.154Z,42.34
2019-05-05T14:46:05.950Z,41.73
2019-05-05T14:48:37.180Z,41.09
2019-05-05T14:51:08.173Z,41.09
2019-05-05T14:53:39.086Z,39.83
2019-05-05T14:56:10.040Z,40.93
2019-05-05T14:58:40.867Z,39.81
2019-05-05T15:01:11.598Z,38.13
2019-05-05T15:03:44.336Z,38.42
2019-05-05T15:06:28.124Z,38.42
2019-05-05T15:09:06.993Z,37.62
2019-05-05T15:11:56.193Z,37.60
2019-05-05T15:14:26.949Z,37.96
2019-05-05T15:16:57.683Z,37.80
2019-05-05T15:19:28.512Z,38.08
2019-05-05T15:21:59.268Z,38.52
2019-05-05T15:24:30.099Z,38.40
2019-05-05T15:27:00.820Z,38.69
2019-05-05T15:29:31.608Z,38.58
2019-05-05T15:32:04.209Z,38.86
2019-05-05T15:34:34.573Z,39.26
2019-05-05T15:37:05.502Z,39.50
2019-05-05T15:39:36.253Z,38.99
2019-05-05T15:42:07.174Z,39.05
2019-05-05T15:44:38.120Z,39.12
2019-05-05T15:47:08.823Z,40.09
2019-05-05T15:49:39.565Z,39.79
2019-05-05T15:52:10.326Z,39.86
2019-05-05T15:54:41.129Z,39.13
2019-05-05T15:57:13.897Z,39.06
2019-05-05T15:59:44.164Z,38.70
2019-05-05T16:02:14.889Z,38.47
2019-05-05T16:04:45.841Z,38.96
2019-05-05T16:07:16.664Z,38.86
2019-05-05T16:09:47.399Z,38.04
2019-05-05T16:12:31.039Z,38.18
2019-05-05T16:14:53.806Z,38.48
2019-05-05T16:17:26.447Z,38.25
2019-05-05T16:20:04.556Z,38.07
2019-05-05T16:22:37.131Z,38.41
2019-05-05T16:25:09.824Z,38.15
2019-05-05T16:27:44.023Z,38.54
2019-05-05T16:30:16.718Z,38.73
2019-05-05T16:32:47.435Z,38.61
2019-05-05T16:35:18.281Z,38.90
2019-05-05T16:37:49.009Z,39.12
2019-05-05T16:40:23.144Z,39.01
2019-05-05T16:42:54.300Z,39.42
2019-05-05T16:45:25.817Z,39.31
2019-05-05T16:47:56.669Z,39.73
2019-05-05T16:50:27.447Z,39.69
2019-05-05T16:53:03.922Z,40.05
2019-05-05T16:55:55.294Z,39.97
2019-05-05T16:58:25.769Z,40.17
2019-05-05T17:00:56.551Z,38.44
2019-05-05T17:03:29.061Z,37.38
2019-05-05T17:05:59.958Z,37.44
2019-05-05T17:08:30.699Z,38.20
2019-05-05T17:11:01.425Z,37.90
2019-05-05T17:13:33.929Z,37.82
2019-05-05T17:16:13.465Z,38.53
2019-05-05T17:18:45.809Z,39.10
2019-05-05T17:21:24.066Z,39.61
2019-05-05T17:23:54.775Z,39.91
2019-05-05T17:26:25.686Z,40.26
2019-05-05T17:28:56.456Z,40.42
2019-05-05T17:31:27.185Z,40.58
2019-05-05T17:33:57.929Z,41.04
2019-05-05T17:36:28.880Z,40.84
2019-05-05T17:38:59.692Z,40.71
2019-05-05T17:41:50.190Z,40.70
2019-05-05T17:44:25.618Z,41.26
2019-05-05T17:47:01.100Z,41.05
2019-05-05T17:49:33.526Z,41.18
2019-05-05T17:52:05.704Z,41.44
2019-05-05T17:54:44.586Z,40.89
2019-05-05T17:57:15.686Z,41.11
2019-05-05T17:59:46.482Z,41.52
2019-05-05T18:02:17.052Z,41.42
2019-05-05T18:04:48.090Z,41.87
2019-05-05T18:07:29.477Z,41.48
2019-05-05T18:10:03.975Z,41.31
2019-05-05T18:12:54.063Z,41.24
2019-05-05T18:15:43.503Z,41.23
2019-05-05T18:18:14.411Z,41.26
2019-05-05T18:20:45.137Z,41.68
2019-05-05T18:23:15.601Z,42.00
2019-05-05T18:25:46.045Z,42.12
2019-05-05T18:28:20.166Z,42.15
2019-05-05T18:30:49.626Z,42.11
2019-05-05T18:33:20.437Z,42.04
2019-05-05T18:35:51.194Z,42.11
2019-05-05T18:38:23.592Z,42.24
2019-05-05T18:40:56.132Z,42.42
2019-05-05T18:43:28.616Z,42.68
2019-05-05T18:46:04.581Z,42.78
2019-05-05T18:48:35.734Z,43.37
2019-05-05T18:51:06.442Z,43.28
2019-05-05T18:53:55.076Z,43.47
2019-05-05T18:56:25.882Z,43.36
2019-05-05T18:58:56.679Z,43.42
2019-05-05T19:01:34.787Z,43.78
2019-05-05T19:04:07.398Z,43.90
2019-05-05T19:06:48.840Z,43.93
2019-05-05T19:09:24.930Z,44.02
2019-05-05T19:11:55.550Z,44.11
2019-05-05T19:14:29.850Z,44.45
2019-05-05T19:16:58.981Z,44.42
2019-05-05T19:19:30.039Z,44.35
2019-05-05T19:22:05.321Z,44.47
2019-05-05T19:24:36.067Z,44.66
2019-05-05T19:27:07.121Z,44.81
2019-05-05T19:29:37.941Z,45.03
2019-05-05T19:32:08.774Z,45.37
2019-05-05T19:34:39.528Z,45.47
2019-05-05T19:37:10.354Z,45.69
2019-05-05T19:39:41.198Z,45.87
2019-05-05T19:42:14.308Z,45.87
2019-05-05T19:44:44.814Z,46.08
2019-05-05T19:47:20.561Z,46.05
2019-05-05T19:49:53.044Z,46.39
2019-05-05T19:52:24.055Z,46.52
2019-05-05T19:54:55.022Z,46.64
2019-05-05T19:57:25.447Z,46.64
2019-05-05T19:59:55.938Z,46.81
2019-05-05T20:02:26.795Z,46.93
2019-05-05T20:04:57.238Z,47.02
2019-05-05T20:07:28.088Z,47.04
2019-05-05T20:10:01.408Z,47.07
2019-05-05T20:12:34.234Z,47.04
2019-05-05T20:15:07.858Z,47.19
2019-05-05T20:17:39.294Z,47.22
2019-05-05T20:20:13.860Z,47.28
2019-05-05T20:22:44.610Z,47.37
2019-05-05T20:25:15.449Z,47.28
2019-05-05T20:27:47.877Z,47.27
2019-05-05T20:30:18.898Z,47.39
2019-05-05T20:32:56.155Z,47.39
2019-05-05T20:35:28.274Z,47.42
2019-05-05T20:38:04.759Z,47.39
2019-05-05T20:40:37.530Z,47.51
2019-05-05T20:43:08.330Z,47.55
2019-05-05T20:45:39.271Z,47.63
2019-05-05T20:48:09.660Z,47.36
2019-05-05T20:50:40.110Z,47.38
2019-05-05T20:53:10.790Z,47.41
2019-05-05T20:55:41.722Z,47.51
2019-05-05T20:58:14.112Z,47.43
2019-05-05T21:00:44.934Z,47.52
2019-05-05T21:03:15.313Z,47.43
2019-05-05T21:05:51.178Z,47.15
2019-05-05T21:08:18.539Z,47.15
2019-05-05T21:10:49.398Z,47.22
2019-05-05T21:13:20.338Z,47.03
2019-05-05T21:15:51.174Z,47.03
2019-05-05T21:18:23.909Z,47.24
2019-05-05T21:20:54.743Z,47.24
2019-05-05T21:23:27.758Z,47.21
2019-05-05T21:26:05.988Z,47.41
2019-05-05T21:28:36.832Z,47.56
2019-05-05T21:31:07.354Z,47.74
2019-05-05T21:33:38.188Z,48.01
2019-05-05T21:36:09.035Z,48.15
2019-05-05T21:38:41.081Z,48.43
2019-05-05T21:41:13.842Z,48.28
2019-05-05T21:43:44.874Z,48.46
2019-05-05T21:46:15.908Z,48.76
2019-05-05T21:48:46.591Z,48.70
2019-05-05T21:51:35.232Z,49.00
2019-05-05T21:54:23.792Z,49.42
2019-05-05T21:57:14.089Z,49.90
2019-05-05T21:59:54.881Z,50.62
2019-05-05T22:02:17.999Z,50.91
2019-05-05T22:04:48.742Z,51.27
2019-05-05T22:07:19.822Z,51.66
2019-05-05T22:09:50.660Z,52.05
2019-05-05T22:12:24.326Z,52.22
2019-05-05T22:14:58.088Z,52.48
2019-05-05T22:17:28.862Z,52.81
2019-05-05T22:20:01.106Z,52.96
2019-05-05T22:22:37.596Z,53.10
2019-05-05T22:25:14.170Z,53.42
2019-05-05T22:27:45.114Z,53.54
2019-05-05T22:30:15.841Z,54.19
2019-05-05T22:32:46.218Z,54.26
2019-05-05T22:35:16.896Z,54.52
2019-05-05T22:37:47.644Z,54.61
2019-05-05T22:40:24.635Z,55.11
2019-05-05T22:42:55.557Z,55.39
2019-05-05T22:45:26.396Z,55.57
2019-05-05T22:47:57.123Z,55.79
2019-05-05T22:50:27.620Z,56.13
2019-05-05T22:52:58.155Z,56.34
2019-05-05T22:55:28.946Z,56.45
2019-05-05T22:57:59.783Z,56.68
2019-05-05T23:00:30.726Z,56.61
2019-05-05T23:03:09.040Z,57.14
2019-05-05T23:05:41.180Z,57.61
2019-05-05T23:08:13.573Z,57.78
2019-05-05T23:10:44.586Z,57.81
2019-05-05T23:13:14.980Z,58.07
2019-05-05T23:15:47.277Z,58.24
2019-05-05T23:18:19.720Z,58.61
2019-05-05T23:20:58.462Z,58.79
2019-05-05T23:23:46.819Z,58.88
2019-05-05T23:26:24.977Z,59.16
2019-05-05T23:28:55.795Z,59.29
2019-05-05T23:31:26.277Z,59.66
2019-05-05T23:33:56.745Z,59.64
2019-05-05T23:36:27.696Z,59.74
2019-05-05T23:38:58.068Z,59.95
2019-05-05T23:41:28.852Z,60.14
2019-05-05T23:43:59.692Z,60.07
2019-05-05T23:46:30.509Z,60.03
2019-05-05T23:49:01.258Z,60.07
2019-05-05T23:51:32.165Z,59.90
2019-05-05T23:54:04.252Z,60.18
2019-05-05T23:56:35.501Z,60.37
2019-05-05T23:59:06.330Z,60.54
